createdAt,value
2017-12-31T06:28:14.779Z,91.20
2017-12-31T06:30:46.670Z,91.30
2017-12-31T06:33:18.575Z,91.30
2017-12-31T06:35:51.255Z,91.20
2017-12-31T06:38:23.912Z,91.00
2017-12-31T06:40:55.806Z,91.00
2017-12-31T06:43:27.695Z,90.70
2017-12-31T06:45:59.600Z,91.00
2017-12-31T06:48:31.472Z,91.00
2017-12-31T06:51:04.147Z,90.90
2017-12-31T06:53:36.783Z,90.90
2017-12-31T06:56:08.700Z,90.80
2017-12-31T06:58:41.328Z,90.60
2017-12-31T07:01:13.236Z,90.60
2017-12-31T07:03:45.111Z,90.70
2017-12-31T07:06:17.003Z,90.70
2017-12-31T07:08:48.871Z,90.70
2017-12-31T07:11:20.764Z,90.30
2017-12-31T07:13:52.654Z,90.20
2017-12-31T07:16:24.551Z,90.10
2017-12-31T07:18:56.427Z,90.30
2017-12-31T07:21:28.316Z,90.00
2017-12-31T07:24:00.195Z,89.70
2017-12-31T07:26:32.099Z,90.00
2017-12-31T07:29:03.975Z,89.70
2017-12-31T07:31:35.879Z,89.20
2017-12-31T07:34:07.750Z,89.20
2017-12-31T07:36:39.651Z,89.20
2017-12-31T07:39:11.528Z,89.10
2017-12-31T07:41:44.187Z,88.80
2017-12-31T07:44:16.059Z,88.80
2017-12-31T07:46:48.741Z,88.20
2017-12-31T07:49:21.375Z,88.20
2017-12-31T07:51:53.271Z,88.20
2017-12-31T07:54:25.138Z,88.20
2017-12-31T07:56:57.807Z,88.30
2017-12-31T07:59:29.683Z,88.20
2017-12-31T08:02:02.346Z,87.30
2017-12-31T08:04:34.227Z,87.30
2017-12-31T08:07:06.130Z,88.10
2017-12-31T08:09:38.007Z,87.20
2017-12-31T08:12:10.159Z,86.80
2017-12-31T08:14:42.039Z,86.90
2017-12-31T08:17:13.935Z,86.70
2017-12-31T08:19:45.807Z,86.50
2017-12-31T08:22:17.695Z,85.70
2017-12-31T08:24:49.566Z,86.20
2017-12-31T08:27:22.238Z,85.80
2017-12-31T08:29:54.117Z,85.90
2017-12-31T08:32:26.023Z,85.00
2017-12-31T08:34:58.011Z,85.60
2017-12-31T08:37:29.896Z,85.20
2017-12-31T08:40:01.780Z,84.80
2017-12-31T08:42:34.452Z,84.10
2017-12-31T08:45:06.347Z,84.10
2017-12-31T08:47:38.230Z,84.50
2017-12-31T08:50:10.324Z,84.70
2017-12-31T08:52:42.219Z,84.70
2017-12-31T08:55:14.859Z,85.20
2017-12-31T08:57:46.779Z,85.10
2017-12-31T09:00:18.660Z,85.40
2017-12-31T09:02:50.551Z,85.30
2017-12-31T09:05:22.429Z,85.60
2017-12-31T09:07:55.106Z,86.60
2017-12-31T09:10:27.749Z,88.80
2017-12-31T09:12:59.656Z,88.80
2017-12-31T09:15:32.295Z,86.00
2017-12-31T09:18:04.969Z,86.00
2017-12-31T09:20:36.858Z,85.50
2017-12-31T09:23:08.751Z,86.20
2017-12-31T09:25:40.637Z,85.60
2017-12-31T09:28:12.770Z,85.60
2017-12-31T09:30:44.649Z,85.80
2017-12-31T09:33:16.542Z,85.80
2017-12-31T09:35:48.414Z,86.00
2017-12-31T09:38:20.329Z,85.80
2017-12-31T09:40:52.212Z,86.00
2017-12-31T09:43:24.110Z,86.40
2017-12-31T09:45:56.766Z,86.00
2017-12-31T09:48:28.657Z,86.00
2017-12-31T09:51:01.303Z,86.10
2017-12-31T09:53:33.638Z,86.10
2017-12-31T09:56:05.509Z,86.10
2017-12-31T09:58:37.388Z,86.30
2017-12-31T10:01:09.264Z,86.60
2017-12-31T10:03:41.175Z,86.80
2017-12-31T10:06:13.056Z,86.80
2017-12-31T10:08:44.959Z,87.10
2017-12-31T10:11:17.611Z,87.50
2017-12-31T10:13:49.514Z,87.50
2017-12-31T10:16:21.401Z,87.60
2017-12-31T10:18:53.307Z,87.20
2017-12-31T10:21:25.187Z,87.60
2017-12-31T10:23:58.183Z,88.50
2017-12-31T10:26:30.061Z,87.90
2017-12-31T10:29:01.951Z,88.50
2017-12-31T10:31:33.874Z,88.20
2017-12-31T10:34:05.743Z,88.60
2017-12-31T10:36:37.644Z,89.00
2017-12-31T10:39:09.555Z,88.80
2017-12-31T10:41:41.434Z,88.80
2017-12-31T10:44:13.353Z,88.70
2017-12-31T10:46:45.998Z,89.00
2017-12-31T10:49:17.902Z,88.90
2017-12-31T10:51:49.787Z,89.50
2017-12-31T10:54:21.718Z,88.80
2017-12-31T10:56:53.575Z,88.80
2017-12-31T10:59:26.231Z,88.50
2017-12-31T11:01:58.112Z,88.50
2017-12-31T11:04:30.785Z,88.40
2017-12-31T11:07:03.427Z,88.20
2017-12-31T11:09:35.320Z,88.20
2017-12-31T11:12:07.979Z,88.10
2017-12-31T11:14:39.883Z,88.00
2017-12-31T11:17:11.760Z,88.50
2017-12-31T11:19:43.667Z,88.10
2017-12-31T11:22:17.139Z,87.80
2017-12-31T11:24:49.052Z,87.80
2017-12-31T11:27:21.704Z,87.90
2017-12-31T11:29:53.586Z,87.80
2017-12-31T11:32:26.230Z,86.80
2017-12-31T11:34:58.135Z,86.70
2017-12-31T11:37:30.020Z,86.50
2017-12-31T11:40:01.909Z,86.20
2017-12-31T11:42:33.776Z,85.80
2017-12-31T11:45:05.678Z,85.70
2017-12-31T11:47:37.567Z,85.60
2017-12-31T11:50:09.469Z,86.00
2017-12-31T11:52:41.341Z,85.50
2017-12-31T11:55:14.039Z,85.70
2017-12-31T11:57:45.927Z,85.60
2017-12-31T12:00:17.825Z,85.80
2017-12-31T12:02:49.703Z,85.90
2017-12-31T12:05:22.378Z,85.30
2017-12-31T12:07:55.019Z,85.30
2017-12-31T12:10:26.921Z,85.30
2017-12-31T12:12:59.583Z,85.20
2017-12-31T12:15:31.481Z,85.10
2017-12-31T12:18:03.407Z,84.50
2017-12-31T12:20:35.307Z,84.60
2017-12-31T12:23:07.199Z,84.40
2017-12-31T12:25:39.099Z,83.80
2017-12-31T12:28:11.739Z,84.30
2017-12-31T12:30:43.625Z,84.20
2017-12-31T12:33:15.499Z,84.10
2017-12-31T12:35:48.163Z,84.40
2017-12-31T12:38:20.039Z,84.30
2017-12-31T12:40:52.719Z,83.70
2017-12-31T12:43:25.367Z,83.90
2017-12-31T12:45:57.254Z,83.80
2017-12-31T12:48:29.900Z,83.30
2017-12-31T12:51:01.803Z,83.30
2017-12-31T12:53:33.681Z,83.20
2017-12-31T12:56:05.585Z,83.10
2017-12-31T12:58:37.450Z,82.60
2017-12-31T13:01:09.374Z,82.60
2017-12-31T13:03:41.259Z,81.80
2017-12-31T13:06:13.167Z,81.20
2017-12-31T13:08:45.801Z,81.60
2017-12-31T13:11:17.710Z,81.60
2017-12-31T13:13:49.598Z,81.30
2017-12-31T13:16:21.483Z,81.00
2017-12-31T13:18:53.359Z,81.10
2017-12-31T13:21:25.243Z,80.80
2017-12-31T13:23:57.880Z,80.00
2017-12-31T13:26:29.785Z,80.00
2017-12-31T13:29:01.675Z,79.80
2017-12-31T13:31:33.608Z,79.10
2017-12-31T13:34:05.479Z,79.00
2017-12-31T13:36:37.371Z,79.50
2017-12-31T13:39:09.259Z,78.80
2017-12-31T13:41:41.159Z,79.20
2017-12-31T13:44:13.036Z,78.90
2017-12-31T13:46:44.939Z,78.50
2017-12-31T13:49:16.867Z,79.00
2017-12-31T13:51:48.758Z,79.00
2017-12-31T13:54:20.692Z,78.70
2017-12-31T13:56:52.550Z,78.90
2017-12-31T13:59:24.424Z,78.40
2017-12-31T14:01:56.647Z,78.90
2017-12-31T14:04:28.507Z,78.60
2017-12-31T14:07:00.473Z,78.20
2017-12-31T14:09:33.123Z,78.70
2017-12-31T14:12:05.803Z,78.60
2017-12-31T14:14:38.461Z,78.80
2017-12-31T14:17:10.423Z,78.80
2017-12-31T14:19:42.255Z,78.90
2017-12-31T14:22:14.167Z,79.00
2017-12-31T14:24:46.822Z,79.40
2017-12-31T14:27:18.730Z,79.40
2017-12-31T14:29:50.887Z,78.70
2017-12-31T14:32:22.785Z,79.30
2017-12-31T14:34:54.667Z,79.30
2017-12-31T14:37:26.567Z,78.90
2017-12-31T14:39:58.442Z,79.20
2017-12-31T14:42:30.350Z,79.30
2017-12-31T14:45:02.263Z,79.20
2017-12-31T14:47:34.143Z,78.80
2017-12-31T14:50:06.023Z,78.90
2017-12-31T14:52:37.924Z,79.00
2017-12-31T14:55:10.554Z,79.10
2017-12-31T14:57:42.481Z,79.10
2017-12-31T15:00:14.368Z,79.20
2017-12-31T15:02:46.262Z,79.10
2017-12-31T15:05:18.135Z,78.80
2017-12-31T15:07:50.807Z,78.80
2017-12-31T15:10:23.456Z,78.70
2017-12-31T15:12:56.127Z,78.60
2017-12-31T15:15:28.009Z,78.60
2017-12-31T15:17:59.899Z,78.60
2017-12-31T15:20:31.772Z,78.50
2017-12-31T15:23:03.729Z,78.50
2017-12-31T15:25:35.566Z,79.10
2017-12-31T15:28:08.243Z,78.50
2017-12-31T15:30:40.115Z,78.50
2017-12-31T15:33:12.771Z,78.40
2017-12-31T15:35:44.649Z,78.30
2017-12-31T15:38:17.327Z,78.80
2017-12-31T15:40:50.018Z,78.90
2017-12-31T15:43:22.671Z,78.50
2017-12-31T15:45:54.547Z,78.50
2017-12-31T15:48:27.223Z,78.90
2017-12-31T15:50:59.883Z,79.00
2017-12-31T15:53:31.769Z,78.90
2017-12-31T15:56:04.407Z,78.80
2017-12-31T15:58:36.295Z,78.80
2017-12-31T16:01:08.958Z,79.00
2017-12-31T16:03:40.886Z,79.00
2017-12-31T16:06:12.768Z,78.60
2017-12-31T16:08:44.672Z,78.60
2017-12-31T16:11:16.547Z,78.80
2017-12-31T16:13:48.438Z,78.30
2017-12-31T16:16:20.321Z,78.30
2017-12-31T16:18:52.231Z,79.20
2017-12-31T16:21:24.119Z,78.70
2017-12-31T16:23:56.018Z,78.70
2017-12-31T16:26:28.674Z,78.60
2017-12-31T16:29:00.567Z,78.40
2017-12-31T16:31:33.214Z,78.70
2017-12-31T16:34:05.098Z,78.70
2017-12-31T16:36:37.744Z,78.40
2017-12-31T16:39:09.637Z,78.40
2017-12-31T16:41:42.285Z,78.80
2017-12-31T16:44:14.175Z,78.70
2017-12-31T16:46:46.826Z,78.60
2017-12-31T16:49:18.727Z,78.60
2017-12-31T16:51:50.599Z,78.80
2017-12-31T16:54:22.503Z,78.50
2017-12-31T16:56:54.371Z,78.60
2017-12-31T16:59:26.275Z,78.60
2017-12-31T17:01:58.154Z,78.50
2017-12-31T17:04:30.063Z,78.20
2017-12-31T17:07:02.700Z,78.30
2017-12-31T17:09:34.598Z,78.20
2017-12-31T17:12:06.482Z,78.40
2017-12-31T17:14:38.386Z,78.20
2017-12-31T17:17:10.255Z,77.90
2017-12-31T17:19:42.158Z,78.60
2017-12-31T17:22:14.796Z,77.40
2017-12-31T17:24:46.691Z,77.40
2017-12-31T17:27:19.324Z,79.10
2017-12-31T17:29:51.228Z,79.00
2017-12-31T17:32:23.879Z,79.20
2017-12-31T17:34:55.766Z,79.20
2017-12-31T17:37:28.419Z,78.90
2017-12-31T17:40:00.329Z,78.90
2017-12-31T17:42:32.211Z,79.00
2017-12-31T17:45:04.119Z,78.20
2017-12-31T17:47:36.790Z,78.70
2017-12-31T17:50:08.672Z,78.60
2017-12-31T17:52:40.567Z,78.50
2017-12-31T17:55:12.472Z,78.50
2017-12-31T17:57:45.116Z,78.90
2017-12-31T18:00:17.002Z,78.80
2017-12-31T18:02:48.885Z,77.60
2017-12-31T18:05:21.527Z,78.30
2017-12-31T18:07:53.405Z,78.30
2017-12-31T18:10:25.518Z,78.40
2017-12-31T18:12:57.395Z,77.80
2017-12-31T18:15:29.301Z,77.60
2017-12-31T18:18:02.331Z,78.00
2017-12-31T18:20:34.226Z,77.30
2017-12-31T18:23:06.106Z,76.80
2017-12-31T18:25:38.776Z,76.80
2017-12-31T18:28:10.647Z,77.30
2017-12-31T18:30:43.319Z,77.10
2017-12-31T18:33:15.202Z,77.00
2017-12-31T18:35:47.873Z,77.70
2017-12-31T18:38:20.507Z,78.20
2017-12-31T18:40:52.421Z,78.10
2017-12-31T18:43:24.305Z,77.30
2017-12-31T18:45:56.206Z,77.90
2017-12-31T18:48:28.106Z,77.40
2017-12-31T18:51:00.004Z,77.00
2017-12-31T18:53:31.875Z,77.40
2017-12-31T18:56:03.761Z,77.50
2017-12-31T18:58:35.635Z,77.50
2017-12-31T19:01:08.286Z,77.50
2017-12-31T19:03:40.175Z,77.50
2017-12-31T19:06:12.819Z,77.40
2017-12-31T19:08:44.746Z,77.30
2017-12-31T19:11:16.635Z,77.00
2017-12-31T19:13:48.500Z,77.80
2017-12-31T19:16:20.404Z,77.10
2017-12-31T19:18:52.279Z,76.70
2017-12-31T19:21:24.185Z,77.50
2017-12-31T19:23:56.046Z,76.60
2017-12-31T19:26:27.938Z,76.70
2017-12-31T19:28:59.815Z,76.50
2017-12-31T19:31:31.735Z,76.40
2017-12-31T19:34:03.605Z,76.90
2017-12-31T19:36:36.266Z,77.50
2017-12-31T19:39:08.138Z,77.50
2017-12-31T19:41:40.821Z,76.80
2017-12-31T19:44:13.460Z,76.30
2017-12-31T19:46:46.118Z,75.60
2017-12-31T19:49:18.007Z,75.50
2017-12-31T19:51:49.903Z,75.40
2017-12-31T19:54:22.555Z,75.20
2017-12-31T19:56:54.474Z,75.00
2017-12-31T19:59:26.370Z,76.10
2017-12-31T20:01:58.261Z,75.80
2017-12-31T20:04:30.911Z,75.60
2017-12-31T20:07:02.815Z,75.60
2017-12-31T20:09:34.698Z,76.30
2017-12-31T20:12:06.598Z,75.60
2017-12-31T20:14:38.471Z,75.70
2017-12-31T20:17:11.124Z,76.40
2017-12-31T20:19:42.995Z,76.40
2017-12-31T20:22:14.910Z,76.10
2017-12-31T20:24:46.775Z,77.00
2017-12-31T20:27:18.671Z,77.80
2017-12-31T20:29:50.551Z,80.30
2017-12-31T20:32:23.215Z,81.20
2017-12-31T20:34:55.083Z,81.00
2017-12-31T20:37:27.003Z,82.90
2017-12-31T20:39:58.887Z,84.10
2017-12-31T20:42:30.773Z,85.70
2017-12-31T20:45:03.407Z,86.50
2017-12-31T20:47:35.303Z,86.40
2017-12-31T20:50:07.175Z,87.80
2017-12-31T20:52:39.851Z,90.30
2017-12-31T20:55:12.495Z,90.60
2017-12-31T20:57:44.395Z,90.60
2017-12-31T21:00:17.039Z,91.40
2017-12-31T21:02:48.955Z,91.30
2017-12-31T21:05:20.830Z,91.60
2017-12-31T21:07:52.732Z,91.30
2017-12-31T21:10:24.598Z,92.10
2017-12-31T21:12:56.490Z,91.90
2017-12-31T21:15:28.384Z,91.70
2017-12-31T21:18:00.278Z,92.00
2017-12-31T21:20:32.147Z,91.40
2017-12-31T21:23:04.844Z,91.60
2017-12-31T21:25:36.711Z,91.60
2017-12-31T21:28:08.614Z,91.40
2017-12-31T21:30:40.506Z,91.20
2017-12-31T21:33:13.178Z,91.00
2017-12-31T21:35:45.050Z,91.00
2017-12-31T21:38:17.696Z,90.40
2017-12-31T21:40:49.566Z,90.40
2017-12-31T21:43:21.467Z,89.70
2017-12-31T21:45:53.334Z,89.30
2017-12-31T21:48:25.226Z,89.70
2017-12-31T21:50:57.114Z,88.70
2017-12-31T21:53:29.779Z,88.30
2017-12-31T21:56:01.728Z,88.30
2017-12-31T21:58:33.631Z,88.00
2017-12-31T22:01:06.278Z,88.60
2017-12-31T22:03:38.175Z,88.50
2017-12-31T22:06:10.342Z,88.20
2017-12-31T22:08:42.254Z,88.00
2017-12-31T22:11:14.159Z,88.30
2017-12-31T22:13:46.819Z,86.80
2017-12-31T22:16:18.702Z,86.80
2017-12-31T22:18:51.363Z,87.60
2017-12-31T22:21:24.002Z,87.10
2017-12-31T22:23:55.899Z,86.90
2017-12-31T22:26:28.549Z,88.00
2017-12-31T22:29:00.455Z,87.80
2017-12-31T22:31:32.339Z,87.80
2017-12-31T22:34:04.227Z,87.60
2017-12-31T22:36:36.099Z,88.00
2017-12-31T22:39:07.991Z,88.70
2017-12-31T22:41:40.633Z,87.70
2017-12-31T22:44:12.583Z,87.60
2017-12-31T22:46:44.447Z,87.40
2017-12-31T22:49:16.343Z,87.60
2017-12-31T22:51:48.995Z,87.00
2017-12-31T22:54:20.899Z,86.90
2017-12-31T22:56:52.771Z,87.00
2017-12-31T22:59:24.699Z,86.80
2017-12-31T23:01:57.370Z,86.80
2017-12-31T23:04:30.038Z,86.70
2017-12-31T23:07:01.927Z,86.70
2017-12-31T23:09:34.659Z,85.40
2017-12-31T23:12:06.549Z,85.40
2017-12-31T23:14:39.226Z,85.50
2017-12-31T23:17:11.099Z,85.50
2017-12-31T23:19:44.572Z,88.90
2017-12-31T23:22:16.442Z,88.90
2017-12-31T23:24:48.347Z,89.40
2017-12-31T23:27:20.228Z,89.60
2017-12-31T23:29:52.158Z,88.90
2017-12-31T23:32:24.043Z,90.20
2017-12-31T23:34:56.751Z,90.00
2017-12-31T23:37:28.643Z,90.00
2017-12-31T23:40:01.319Z,90.50
2017-12-31T23:42:33.967Z,90.60
2017-12-31T23:45:05.894Z,90.60
2017-12-31T23:47:37.767Z,90.80
2017-12-31T23:50:09.676Z,90.30
2017-12-31T23:52:42.313Z,91.30
2017-12-31T23:55:14.227Z,91.30
2017-12-31T23:57:46.112Z,91.60
